Flight Track Log - Related Links

Times and Time Zones

All times are in EDT time to prevent confusion due to time zone crossing. See the N6711L flight status page for this flight to view local times or setup timezone preferences in your user account.

Time Position Orientation Groundspeed Altitude Reporting Facility
EDT Latitude Longitude Course Direction KTS MPH feet Rate Location/Type
Mon 08:41:17 AM 26.0650 -81.7642 166° South 132 152 2,800  Level Miami Center
Mon 08:42:17 AM 26.0258 -81.7464 158° South 132 152 3,500 750 Climbing Miami Center
Mon 08:43:17 AM 25.9889 -81.7286 157° South 143 165 4,300 600 Climbing Miami Center
Mon 08:44:17 AM 25.9539 -81.7111 156° South 143 165 4,700 1,350 Climbing Miami Center
Mon 08:45:00 AM 25.9070 -81.7731 166° South  Level Estimated
Mon 08:45:17 AM 25.9169 -81.6933 157° South 143 165 7,000  Level Miami Center
Mon 08:46:17 AM 25.8858 -81.6828 163° South 172 198 7,100 50 Climbing Miami Center
Mon 08:47:17 AM 25.8344 -81.6600 158° South 172 198 7,100  Level Miami Center
Mon 08:48:17 AM 25.7872 -81.6397 159° South 172 198 7,100 -50 Level Miami Center
Mon 08:49:17 AM 25.7522 -81.6244 159° South 172 198 7,000 -50 Descending Miami Center
Mon 08:50:17 AM 25.7006 -81.6017 158° South 172 198 7,000 100 Level Miami Center
Mon 08:51:17 AM 25.6492 -81.5814 160° South 177 204 7,200 100 Climbing Miami Center
Mon 08:52:17 AM 25.6081 -81.5589 154° Southeast 177 204 7,200  Level Miami Center
Mon 08:53:17 AM 25.5586 -81.5386 160° South 182 209 7,200 -150 Level Miami Center
Mon 08:54:17 AM 25.5114 -81.5161 157° South 182 209 6,900 -350 Descending Miami Center
Mon 08:55:17 AM 25.4611 -81.5186 183° South 188 216 6,500 -400 Descending Miami Center
Mon 08:56:17 AM 25.4047 -81.5189 180° South 180 207 6,100 250 Descending Miami Center
Mon 08:57:17 AM 25.3525 -81.5169 178° South 180 207 7,000 450 Climbing Miami Center
Mon 08:58:17 AM 25.3200 -81.5569 228° Southwest 180 207 7,000 -1,350 Level Miami Center
Mon 08:59:17 AM 25.2569 -81.5728 193° South 177 204 4,300 -1,400 Descending Miami Center
Mon 09:00:17 AM 25.2061 -81.5894 197° South 177 204 4,200 1,350 Descending Miami Center
Mon 09:01:17 AM 25.1747 -81.5950 189° South 177 204 7,000  Climbing Miami Center
Mon 09:02:17 AM 25.1200 -81.6111 195° South 171 197 4,200 -1,450 Descending Miami Center
Mon 09:03:17 AM 25.0756 -81.6211 192° South 171 197 4,100  Descending Miami Center
Mon 09:04:17 AM 25.0292 -81.6353 195° South 166 191 4,200 -100 Climbing Miami Center
Mon 09:05:17 AM 24.9811 -81.6381 183° South 166 191 3,900 -400 Descending Miami Center
Mon 09:06:17 AM 24.9333 -81.6314 173° South 166 191 3,400 -450 Descending Miami Center
Mon 09:07:17 AM 24.8833 -81.6250 173° South 177 204 3,000 -400 Descending Miami Center
Mon 09:08:17 AM 24.8336 -81.6183 173° South 177 204 2,600 -550 Descending Miami Center
Mon 09:09:17 AM 24.7858 -81.6119 173° South 177 204 1,900 -450 Descending Miami Center
Mon 09:10:17 AM 24.7378 -81.6056 173° South 177 204 1,700 -100 Descending Miami Center
Mon 09:11:17 AM 24.6919 -81.6017 176° South 177 204 1,700  Level Miami Center
Mon 09:13:00 AM 24.6599 -81.6736 244° Southwest  Level FlightAware Approximate
Mon 09:20:00 AM 24.5500 -81.7500 190° South  Level FlightAware Approximate
Mon 09:21:00 AM 24.5561 -81.7596 190° South  Level Estimated
Mon 09:22:00 AM 24.5561 -81.7596 190° South  Level Estimated
Mon 09:23:00 AM 24.5561 -81.7596 190° South  Level Estimated
Mon 09:24:00 AM 24.5561 -81.7596 190° South  Level Estimated
Mon 09:25:00 AM 24.5561 -81.7596 190° South  Level Estimated
Mon 09:26:00 AM 24.5561 -81.7596 190° South  Level Estimated

Login

Don't have an account? Register now (free) for customized features, flight alerts, and more!